Time;durP1;ratioP1;P1;durP2;ratioP2;P2;SDS_P1;SDS_P2;PMS_P1;PMS_P2;Temp;Humidity;BMP_temperature;BMP_pressure;BME280_temperature;BME280_humidity;BME280_pressure;Samples;Min_cycle;Max_cycle;Signal;HPM_P1;HPM_P2
2021/01/13 00:00:22;;;;;;;19.92;5.07;;;;;;;0.18;83.90;101804.78;5112867;28;20329;-82
2021/01/13 00:02:47;;;;;;;18.67;4.73;;;;;;;0.17;83.66;101803.94;5075801;28;20045;-81
2021/01/13 00:05:13;;;;;;;15.65;3.97;;;;;;;0.17;84.33;101795.13;5112757;28;20036;-81
2021/01/13 00:07:41;;;;;;;23.85;5.00;;;;;;;0.10;84.71;101792.19;5096341;28;20069;-81
2021/01/13 00:10:08;;;;;;;24.25;4.97;;;;;;;0.08;84.79;101794.13;5113164;28;20409;-82
2021/01/13 00:12:34;;;;;;;18.00;4.28;;;;;;;0.11;84.88;101796.53;5079173;28;20329;-81
2021/01/13 00:14:59;;;;;;;14.63;4.47;;;;;;;0.09;84.57;101797.63;5079323;28;20039;-81
2021/01/13 00:17:24;;;;;;;24.40;5.47;;;;;;;0.09;84.82;101795.81;5109055;28;20039;-81
2021/01/13 00:19:50;;;;;;;18.47;4.80;;;;;;;0.15;84.65;101792.63;5102104;28;20020;-82
2021/01/13 00:22:15;;;;;;;18.33;4.47;;;;;;;0.10;84.13;101789.53;5076367;28;20043;-81
2021/01/13 00:24:40;;;;;;;18.63;4.33;;;;;;;0.09;84.87;101787.84;5112586;28;20028;-80
2021/01/13 00:27:06;;;;;;;15.23;3.80;;;;;;;0.07;84.65;101776.50;5112899;28;20379;-81
2021/01/13 00:29:31;;;;;;;16.07;4.70;;;;;;;0.12;84.66;101782.25;5111662;28;20028;-81
2021/01/13 00:32:00;;;;;;;17.17;4.43;;;;;;;0.06;84.51;101782.81;5077354;28;20039;-81
2021/01/13 00:34:27;;;;;;;19.20;4.13;;;;;;;0.08;84.96;101795.97;5077798;28;20108;-81
2021/01/13 00:36:52;;;;;;;16.05;4.03;;;;;;;0.03;85.34;101779.56;5074377;28;20044;-81
2021/01/13 00:39:18;;;;;;;17.20;3.83;;;;;;;0.02;84.88;101783.22;5069793;28;20035;-81
2021/01/13 00:41:43;;;;;;;20.27;5.13;;;;;;;0.00;84.79;101783.38;5111532;28;20432;-81
2021/01/13 00:44:09;;;;;;;21.73;4.23;;;;;;;0.02;84.94;101780.56;5073781;28;20038;-81
2021/01/13 00:46:42;;;;;;;23.13;5.25;;;;;;;0.02;84.79;101772.59;5106974;28;20726;-81
2021/01/13 00:49:08;;;;;;;22.50;3.92;;;;;;;0.05;85.02;101783.78;5111305;28;20038;-81
2021/01/13 00:51:43;;;;;;;12.27;3.80;;;;;;;0.05;85.00;101783.78;5111287;28;20432;-81
2021/01/13 00:54:10;;;;;;;22.90;4.65;;;;;;;0.09;85.05;101787.84;5080476;28;20036;-83
2021/01/13 00:56:44;;;;;;;14.07;3.78;;;;;;;0.08;84.44;101780.84;5111635;28;20040;-84
2021/01/13 00:59:13;;;;;;;17.70;4.18;;;;;;;0.09;85.04;101779.84;5077886;28;20035;-84
2021/01/13 01:01:39;;;;;;;17.45;5.32;;;;;;;0.07;84.99;101768.53;5077815;28;20028;-80
2021/01/13 01:04:06;;;;;;;18.30;3.97;;;;;;;0.10;84.76;101776.25;5110771;28;20085;-83
2021/01/13 01:06:31;;;;;;;;;;;;;;;0.08;83.15;101775.53;5077055;28;20031;-80
2021/01/13 01:08:56;;;;;;;15.70;3.53;;;;;;;0.10;84.67;101775.38;5074157;28;19916;-80
2021/01/13 01:11:23;;;;;;;15.90;4.00;;;;;;;0.06;85.06;101769.50;5100502;28;20043;-80
2021/01/13 01:13:48;;;;;;;16.40;3.95;;;;;;;0.09;84.94;101769.22;5111975;28;20445;-80
2021/01/13 01:16:16;;;;;;;23.07;6.53;;;;;;;0.08;85.40;101764.88;5129341;27;20023;-81
2021/01/13 01:18:41;;;;;;;11.95;4.30;;;;;;;0.07;85.42;101763.22;5128652;27;20097;-80
2021/01/13 01:21:07;;;;;;;22.50;4.10;;;;;;;0.11;85.10;101769.94;5095081;28;20012;-80
2021/01/13 01:23:33;;;;;;;;;;;;;;;0.09;85.37;101774.53;5112295;28;20123;-81
2021/01/13 01:26:00;;;;;;;15.80;3.77;;;;;;;0.05;85.16;101773.16;5078412;28;19951;-81
2021/01/13 01:28:25;;;;;;;17.52;3.63;;;;;;;0.04;85.56;101768.78;5077795;28;20067;-81
2021/01/13 01:30:50;;;;;;;17.70;4.10;;;;;;;0.06;85.80;101772.16;5075947;28;20041;-81
2021/01/13 01:33:16;;;;;;;12.30;3.80;;;;;;;0.07;86.01;101773.00;5129117;28;20016;-81
2021/01/13 01:35:41;;;;;;;21.67;4.10;;;;;;;0.13;85.83;101783.91;5111159;28;20305;-81
2021/01/13 01:38:07;;;;;;;21.33;4.30;;;;;;;0.13;86.15;101777.75;5077899;28;20028;-81
2021/01/13 01:40:32;;;;;;;25.20;5.63;;;;;;;0.16;85.92;101773.00;5074758;28;20031;-81
2021/01/13 01:42:57;;;;;;;17.33;4.00;;;;;;;0.16;86.04;101773.00;5095038;28;20052;-81
2021/01/13 01:45:26;;;;;;;20.10;3.90;;;;;;;0.22;86.16;101782.25;5111771;28;20054;-81
2021/01/13 01:48:14;;;;;;;18.15;3.70;;;;;;;0.28;86.03;101786.16;5111517;28;20375;-81
2021/01/13 01:50:42;;;;;;;15.73;3.58;;;;;;;0.27;85.83;101785.31;5111041;28;20177;-81
2021/01/13 01:53:20;;;;;;;16.88;4.93;;;;;;;0.21;86.15;101775.25;5074665;28;20429;-81
2021/01/13 01:55:53;;;;;;;23.85;5.32;;;;;;;0.11;86.54;101772.59;5097861;28;20036;-83
2021/01/13 01:58:29;;;;;;;20.65;3.97;;;;;;;0.12;87.13;101784.06;5094372;28;20067;-82
2021/01/13 02:01:01;;;;;;;14.50;4.73;;;;;;;0.13;86.79;101783.91;5074513;28;20405;-82
2021/01/13 02:03:30;;;;;;;26.55;3.88;;;;;;;0.13;86.71;101778.59;5077491;28;20332;-82
2021/01/13 02:06:04;;;;;;;22.35;5.15;;;;;;;0.22;87.00;101787.56;5077761;28;20039;-82
2021/01/13 02:08:39;;;;;;;20.05;4.25;;;;;;;0.26;86.49;101783.66;5111525;28;20414;-82
2021/01/13 02:11:06;;;;;;;19.48;3.97;;;;;;;0.31;86.85;101793.88;5098457;28;20096;-82
2021/01/13 02:13:31;;;;;;;17.48;4.70;;;;;;;0.27;86.40;101787.13;5111242;28;20327;-82
2021/01/13 02:15:57;;;;;;;27.40;3.47;;;;;;;0.29;87.07;101796.66;5110976;28;20039;-82
2021/01/13 02:18:26;;;;;;;17.67;3.10;;;;;;;0.26;86.72;101788.97;5114393;28;20314;-82
2021/01/13 02:20:53;;;;;;;17.13;3.78;;;;;;;0.31;87.15;101797.38;5077842;28;20727;-82
2021/01/13 02:23:30;;;;;;;17.65;3.20;;;;;;;0.29;87.13;101787.81;5104208;28;20036;-82
2021/01/13 02:26:14;;;;;;;;;;;;;;;0.33;86.70;101794.56;5114754;28;20028;-82
2021/01/13 02:29:16;;;;;;;20.92;4.18;;;;;;;0.38;86.43;101797.63;5132414;27;20003;-82
2021/01/13 02:31:54;;;;;;;15.15;3.47;;;;;;;0.45;86.83;101810.25;5045343;28;20041;-83
2021/01/13 02:34:24;;;;;;;13.55;3.30;;;;;;;0.54;86.91;101813.88;5040237;28;20131;-82
2021/01/13 02:37:32;;;;;;;18.02;3.03;;;;;;;0.62;86.81;101811.34;5056469;28;20033;-82
2021/01/13 02:39:58;;;;;;;17.00;3.22;;;;;;;0.70;86.49;101808.81;5056686;28;20040;-82
2021/01/13 02:42:33;;;;;;;15.40;2.97;;;;;;;0.74;86.09;101830.66;5050881;28;20045;-82
2021/01/13 02:45:03;;;;;;;19.10;3.30;;;;;;;0.81;86.21;101836.25;5027262;28;20067;-82
2021/01/13 02:47:52;;;;;;;12.73;2.80;;;;;;;0.81;86.30;101833.59;5040032;28;20036;-81
2021/01/13 02:50:25;;;;;;;15.85;2.88;;;;;;;0.88;86.73;101840.00;5039705;28;20112;-82
2021/01/13 02:53:05;;;;;;;18.73;3.00;;;;;;;0.97;85.94;101842.66;5023409;28;20047;-82
2021/01/13 02:55:35;;;;;;;16.85;3.13;;;;;;;0.99;85.02;101839.88;5039734;28;20445;-82
2021/01/13 02:58:04;;;;;;;14.73;2.78;;;;;;;1.00;85.50;101842.38;5056457;28;20037;-81
2021/01/13 03:00:30;;;;;;;19.95;3.65;;;;;;;0.97;85.95;101841.81;5023094;28;20056;-82
2021/01/13 03:02:57;;;;;;;23.20;2.80;;;;;;;0.97;85.76;101847.97;5039532;28;20453;-82
2021/01/13 03:05:23;;;;;;;19.77;4.03;;;;;;;1.03;85.61;101851.91;5039724;28;20056;-81
2021/01/13 03:07:57;;;;;;;12.80;2.53;;;;;;;0.99;85.72;101835.38;5063706;28;20039;-81
2021/01/13 03:10:25;;;;;;;14.48;2.72;;;;;;;1.02;85.88;101850.22;5113860;28;20044;-82
2021/01/13 03:12:58;;;;;;;20.45;3.28;;;;;;;1.04;86.13;101842.94;5113946;28;20124;-82
2021/01/13 03:15:26;;;;;;;20.27;3.13;;;;;;;1.04;86.45;101834.94;5114208;28;20085;-82
2021/01/13 03:18:09;;;;;;;12.40;2.45;;;;;;;1.03;86.08;101820.78;5077023;28;20025;-81
2021/01/13 03:20:38;;;;;;;27.48;3.10;;;;;;;1.05;85.79;101823.28;5096586;28;20108;-81
2021/01/13 03:23:24;;;;;;;15.77;2.40;;;;;;;0.98;86.34;101817.72;5114102;28;20052;-81
2021/01/13 03:25:59;;;;;;;9.30;2.27;;;;;;;1.02;86.96;101826.25;5113714;28;20035;-82
2021/01/13 03:28:30;;;;;;;15.95;2.72;;;;;;;1.07;86.81;101833.78;5113882;28;20039;-82
2021/01/13 03:30:58;;;;;;;19.83;3.42;;;;;;;1.06;86.25;101822.31;5078838;28;20052;-82
2021/01/13 03:33:23;;;;;;;24.27;3.60;;;;;;;1.13;86.67;101826.09;5080184;28;20024;-82
2021/01/13 03:36:00;;;;;;;16.10;2.87;;;;;;;1.10;86.91;101812.22;5096952;28;20141;-82
2021/01/13 03:38:30;;;;;;;17.95;3.08;;;;;;;1.13;86.09;101814.59;5079865;28;20046;-82
2021/01/13 03:41:04;;;;;;;21.00;3.75;;;;;;;1.17;86.30;101830.16;5079629;28;20035;-81
2021/01/13 03:43:35;;;;;;;15.90;3.38;;;;;;;1.11;86.59;101816.53;5113250;28;20055;-82
2021/01/13 03:46:03;;;;;;;16.33;3.30;;;;;;;1.10;86.50;101821.03;5076146;28;20041;-82
2021/01/13 03:48:49;;;;;;;18.85;4.53;;;;;;;1.07;86.60;101818.66;5112970;28;20428;-82
2021/01/13 03:51:42;;;;;;;16.38;2.60;;;;;;;1.15;87.17;101820.59;5130591;27;20021;-81
2021/01/13 03:54:08;;;;;;;15.30;2.65;;;;;;;1.13;86.51;101822.59;5096535;28;20031;-81
2021/01/13 03:56:46;;;;;;;19.60;3.75;;;;;;;1.17;86.73;101826.59;5113142;28;20036;-81
2021/01/13 03:59:15;;;;;;;15.63;2.90;;;;;;;1.13;86.45;101823.41;5072092;28;20016;-81
2021/01/13 04:01:45;;;;;;;18.08;3.03;;;;;;;1.14;86.20;101825.09;5076632;28;20050;-81
2021/01/13 04:04:24;;;;;;;21.95;2.75;;;;;;;1.13;86.76;101828.75;5075807;28;20016;-82
2021/01/13 04:07:00;;;;;;;19.45;2.55;;;;;;;1.12;87.10;101824.38;5079571;28;20056;-81
2021/01/13 04:09:26;;;;;;;13.57;2.90;;;;;;;1.07;87.22;101816.00;5079455;28;20024;-82
2021/01/13 04:11:51;;;;;;;;;;;;;;;1.12;86.64;101812.88;5113400;28;20036;-82
2021/01/13 04:14:22;;;;;;;20.50;3.20;;;;;;;1.07;87.53;101812.50;5113339;28;20002;-82
2021/01/13 04:16:47;;;;;;;13.98;2.65;;;;;;;1.02;87.16;101802.25;5075206;28;20353;-82
2021/01/13 04:19:13;;;;;;;12.97;2.37;;;;;;;1.01;87.43;101803.25;5069223;28;20048;-81
2021/01/13 04:21:39;;;;;;;19.30;3.55;;;;;;;0.97;87.21;101802.69;5077831;28;20021;-82
2021/01/13 04:24:05;;;;;;;22.42;3.38;;;;;;;0.91;87.48;101789.97;5112558;28;20035;-82
2021/01/13 04:26:31;;;;;;;23.10;2.70;;;;;;;0.91;87.92;101799.78;5112016;28;20040;-81
2021/01/13 04:28:57;;;;;;;17.83;3.05;;;;;;;0.86;87.69;101797.56;5112171;27;20063;-82
2021/01/13 04:31:23;;;;;;;28.90;5.13;;;;;;;0.82;88.28;101803.31;5111836;28;20048;-82
2021/01/13 04:33:49;;;;;;;16.92;2.28;;;;;;;0.78;87.92;101800.09;5111880;28;20028;-82
2021/01/13 04:36:15;;;;;;;21.35;3.83;;;;;;;0.78;88.64;101805.41;5112376;28;20054;-82
2021/01/13 04:38:41;;;;;;;17.88;3.53;;;;;;;0.80;88.54;101792.81;5111164;28;20040;-82
2021/01/13 04:41:15;;;;;;;14.02;2.58;;;;;;;0.79;88.14;101799.13;5110929;28;20090;-82
2021/01/13 04:43:51;;;;;;;15.98;3.20;;;;;;;0.83;88.22;101805.84;5112038;28;20101;-82
2021/01/13 04:46:25;;;;;;;17.65;3.88;;;;;;;0.84;88.81;101796.88;5112567;28;20035;-82
2021/01/13 04:49:19;;;;;;;19.17;2.90;;;;;;;0.82;88.58;101800.66;5096657;28;20024;-82
2021/01/13 04:51:46;;;;;;;21.77;3.10;;;;;;;0.82;88.42;101790.84;5096877;28;20035;-82
2021/01/13 04:54:17;;;;;;;17.65;3.22;;;;;;;0.88;88.52;101797.41;5112600;28;20032;-82
2021/01/13 04:56:42;;;;;;;22.48;3.42;;;;;;;0.91;87.96;101797.97;5078665;28;20036;-82
2021/01/13 04:59:30;;;;;;;18.73;3.93;;;;;;;0.91;87.77;101794.47;5129439;27;20047;-82
2021/01/13 05:02:11;;;;;;;14.65;3.03;;;;;;;0.94;87.93;101795.00;5095457;28;20055;-81
2021/01/13 05:05:03;;;;;;;20.98;4.07;;;;;;;0.96;87.73;101790.38;5112374;28;20344;-83
2021/01/13 05:08:11;;;;;;;18.48;3.70;;;;;;;1.03;88.24;101793.31;5111294;28;20345;-82
2021/01/13 05:10:41;;;;;;;17.35;3.78;;;;;;;1.09;88.20;101786.56;5049209;28;20068;-82
2021/01/13 05:13:17;;;;;;;19.95;3.88;;;;;;;1.10;87.53;101785.56;5053901;28;20155;-82
2021/01/13 05:16:10;;;;;;;21.92;3.58;;;;;;;1.10;87.16;101782.91;5049548;28;20338;-82
2021/01/13 05:18:35;;;;;;;30.83;3.60;;;;;;;1.11;87.12;101782.75;5047087;28;20029;-82
2021/01/13 05:21:16;;;;;;;19.70;3.60;;;;;;;1.13;87.40;101779.97;5051069;28;20074;-82
2021/01/13 05:23:44;;;;;;;21.08;4.22;;;;;;;1.13;87.67;101783.47;5037124;28;20029;-82
2021/01/13 05:26:17;;;;;;;25.55;3.63;;;;;;;1.12;87.05;101787.09;5047775;28;20044;-80
2021/01/13 05:29:20;;;;;;;21.83;4.07;;;;;;;1.13;86.58;101780.78;5027016;28;20036;-83
2021/01/13 05:31:49;;;;;;;17.92;3.63;;;;;;;1.09;87.45;101781.22;5036361;28;20040;-84
2021/01/13 05:34:17;;;;;;;17.23;4.20;;;;;;;1.12;87.02;101787.09;5027524;28;20291;-81
2021/01/13 05:37:19;;;;;;;19.55;4.78;;;;;;;1.10;87.40;101780.25;5037006;28;20032;-83
2021/01/13 05:39:45;;;;;;;16.35;3.60;;;;;;;1.08;87.52;101779.56;5040118;28;20399;-81
2021/01/13 05:42:14;;;;;;;19.35;4.35;;;;;;;1.07;87.33;101778.69;5026002;28;20032;-82
2021/01/13 05:44:42;;;;;;;18.52;4.13;;;;;;;1.03;87.22;101756.03;5057137;28;20068;-80
2021/01/13 05:47:40;;;;;;;25.35;4.47;;;;;;;1.05;87.17;101759.38;5062706;28;20028;-80
2021/01/13 05:50:09;;;;;;;20.02;3.40;;;;;;;1.03;87.32;101758.69;5083491;28;20425;-79
2021/01/13 05:52:41;;;;;;;19.60;3.88;;;;;;;1.03;86.94;101761.34;5076262;28;20032;-80
2021/01/13 05:55:07;;;;;;;18.55;3.55;;;;;;;0.96;87.24;101765.56;5078557;28;20098;-79
2021/01/13 05:57:36;;;;;;;23.67;4.00;;;;;;;0.92;87.49;101766.84;5115671;28;20417;-83
2021/01/13 06:00:07;;;;;;;27.80;4.80;;;;;;;0.89;87.94;101770.66;5081304;28;20032;-81
2021/01/13 06:02:41;;;;;;;14.43;4.07;;;;;;;0.84;87.59;101772.06;5077565;28;20384;-81
2021/01/13 06:05:06;;;;;;;16.45;4.57;;;;;;;0.82;88.24;101776.69;5081690;28;20040;-81
2021/01/13 06:07:42;;;;;;;15.63;4.38;;;;;;;0.74;88.33;101770.28;5114919;28;20121;-81
2021/01/13 06:10:08;;;;;;;26.58;6.18;;;;;;;0.74;88.16;101772.09;5114923;28;20036;-79
2021/01/13 06:12:46;;;;;;;25.67;6.65;;;;;;;0.73;88.29;101765.94;5081412;28;20117;-81
2021/01/13 06:15:14;;;;;;;17.98;5.78;;;;;;;0.70;88.41;101774.19;5098566;28;20344;-81
2021/01/13 06:17:50;;;;;;;21.17;5.88;;;;;;;0.65;88.66;101763.13;5077581;28;20123;-81
2021/01/13 06:20:28;;;;;;;21.63;6.73;;;;;;;0.69;88.53;101777.84;5102218;28;20114;-81
2021/01/13 06:22:57;;;;;;;24.98;6.85;;;;;;;0.68;88.27;101775.31;5097893;28;20036;-81
2021/01/13 06:25:30;;;;;;;27.98;6.78;;;;;;;0.73;87.87;101771.25;5078506;28;20055;-82
2021/01/13 06:28:26;;;;;;;32.55;8.30;;;;;;;0.74;88.43;101770.28;5075745;28;20107;-82
2021/01/13 06:31:06;;;;;;;30.05;8.63;;;;;;;0.76;88.39;101772.78;5097133;28;20113;-81
2021/01/13 06:33:53;;;;;;;25.63;7.47;;;;;;;0.77;88.76;101775.28;5077027;28;20094;-82
2021/01/13 06:36:39;;;;;;;29.23;7.60;;;;;;;0.76;88.04;101770.94;5077686;28;20114;-81
2021/01/13 06:39:05;;;;;;;19.85;7.53;;;;;;;0.81;88.02;101767.84;5071451;28;20032;-82
2021/01/13 06:41:43;;;;;;;21.88;7.38;;;;;;;0.77;88.30;101750.50;5061686;28;20135;-81
2021/01/13 06:44:09;;;;;;;28.58;8.63;;;;;;;0.81;88.45;101761.69;5070138;28;20034;-84
2021/01/13 06:46:35;;;;;;;26.17;8.83;;;;;;;0.74;88.42;101751.63;5054309;28;20032;-81
2021/01/13 06:49:20;;;;;;;31.13;8.50;;;;;;;0.74;87.93;101751.63;5063362;28;20344;-83
2021/01/13 06:51:50;;;;;;;24.95;9.02;;;;;;;0.70;88.36;101766.22;5062891;28;20441;-82
2021/01/13 06:54:20;;;;;;;23.08;9.85;;;;;;;0.71;88.81;101757.22;5063045;28;20031;-82
2021/01/13 06:56:47;;;;;;;32.67;8.60;;;;;;;0.73;88.66;101751.75;5078588;28;20055;-83
2021/01/13 06:59:14;;;;;;;25.63;8.50;;;;;;;0.70;88.85;101758.22;5079219;28;20036;-79
2021/01/13 07:01:50;;;;;;;27.58;10.45;;;;;;;0.62;88.98;101739.47;5058736;28;20033;-81
2021/01/13 07:04:16;;;;;;;27.17;9.50;;;;;;;0.66;89.24;101754.16;5061080;28;20100;-79
2021/01/13 07:07:02;;;;;;;31.63;11.33;;;;;;;0.61;88.97;101753.75;5062379;28;20036;-81
2021/01/13 07:09:36;;;;;;;27.80;10.73;;;;;;;0.65;88.97;101763.13;5079003;28;20028;-81
2021/01/13 07:12:09;;;;;;;21.75;9.88;;;;;;;0.66;89.02;101759.50;5079349;28;20028;-80
2021/01/13 07:14:42;;;;;;;24.92;10.60;;;;;;;0.63;88.28;101754.44;5079795;28;20332;-80
2021/01/13 07:17:09;;;;;;;24.75;10.40;;;;;;;0.65;88.63;101760.47;5097442;28;20023;-80
2021/01/13 07:19:35;;;;;;;34.13;10.30;;;;;;;0.69;88.64;101758.38;5097216;28;20073;-79
2021/01/13 07:22:01;;;;;;;30.60;11.73;;;;;;;0.68;89.27;101762.88;5113457;28;20111;-80
2021/01/13 07:24:27;;;;;;;33.47;11.07;;;;;;;0.66;88.39;101758.66;5097198;28;20119;-80
2021/01/13 07:26:53;;;;;;;29.65;11.75;;;;;;;0.63;89.44;101753.59;5114061;28;20039;-79
2021/01/13 07:29:19;;;;;;;29.03;12.13;;;;;;;0.61;88.94;101756.41;5080366;28;20036;-80
2021/01/13 07:31:45;;;;;;;38.80;12.05;;;;;;;0.66;88.62;101764.81;5079968;28;20036;-79
2021/01/13 07:34:15;;;;;;;29.95;12.23;;;;;;;0.66;88.90;101758.66;5113845;28;20123;-78
2021/01/13 07:36:46;;;;;;;31.90;12.32;;;;;;;0.64;88.90;101761.47;5097026;28;20020;-78
2021/01/13 07:39:18;;;;;;;30.08;12.80;;;;;;;0.63;88.88;101766.91;5080249;28;20024;-78
2021/01/13 07:41:52;;;;;;;26.02;13.40;;;;;;;0.70;88.55;101768.88;5097051;28;20031;-78
2021/01/13 07:44:35;;;;;;;31.50;12.55;;;;;;;0.66;88.86;101761.31;5097049;28;20027;-79
2021/01/13 07:47:02;;;;;;;30.23;14.07;;;;;;;0.64;88.63;101757.97;5097947;28;20016;-79
2021/01/13 07:49:41;;;;;;;28.25;12.07;;;;;;;0.56;88.82;101761.34;5096617;28;20028;-79
2021/01/13 07:52:08;;;;;;;31.20;12.93;;;;;;;0.62;nan;101774.06;5096793;28;20103;-78
2021/01/13 07:54:35;;;;;;;31.92;11.98;;;;;;;0.67;88.83;101770.97;5079176;28;20028;-79
2021/01/13 07:57:03;;;;;;;33.45;12.18;;;;;;;0.64;89.19;101761.47;5130199;27;20088;-79
2021/01/13 07:59:39;;;;;;;32.90;12.43;;;;;;;0.67;89.04;101771.81;5096277;28;20032;-78
2021/01/13 08:02:16;;;;;;;31.65;12.50;;;;;;;0.75;89.23;101777.25;5079311;28;20470;-79
2021/01/13 08:05:16;;;;;;;35.28;12.93;;;;;;;0.80;88.42;101776.00;5096265;28;20032;-79
2021/01/13 08:08:23;;;;;;;29.98;11.60;;;;;;;0.83;88.80;101771.22;5097471;28;20102;-79
2021/01/13 08:10:51;;;;;;;28.77;12.82;;;;;;;0.84;88.39;101777.41;5054830;28;20043;-79
2021/01/13 08:13:22;;;;;;;25.60;12.15;;;;;;;0.84;88.22;101777.41;5055368;28;20119;-79
2021/01/13 08:16:12;;;;;;;32.95;13.88;;;;;;;0.87;88.36;101782.41;5054593;28;20047;-80
2021/01/13 08:18:57;;;;;;;28.42;12.73;;;;;;;0.90;89.00;101767.00;5055265;28;20021;-79
2021/01/13 08:21:34;;;;;;;41.22;13.95;;;;;;;0.95;87.87;101771.88;5055330;28;20315;-80
2021/01/13 08:24:06;;;;;;;34.65;12.93;;;;;;;0.99;88.34;101767.94;5055391;28;20024;-80
2021/01/13 08:26:34;;;;;;;26.67;12.35;;;;;;;0.97;88.32;101768.06;5038601;28;20032;-79
2021/01/13 08:29:01;;;;;;;31.92;12.68;;;;;;;0.95;87.99;101771.88;5038594;28;20076;-78
2021/01/13 08:31:28;;;;;;;33.00;13.57;;;;;;;0.98;88.55;101775.09;5045265;28;20328;-80
2021/01/13 08:34:10;;;;;;;41.42;14.65;;;;;;;1.01;88.60;101764.13;5021479;28;20045;-80
2021/01/13 08:36:39;;;;;;;37.28;15.30;;;;;;;1.03;88.07;101764.84;5038517;28;20057;-80
2021/01/13 08:39:14;;;;;;;29.42;13.82;;;;;;;1.03;88.23;101748.03;5038805;28;20057;-80
2021/01/13 08:41:44;;;;;;;34.25;13.32;;;;;;;1.09;88.59;101752.75;5070274;28;20501;-79
2021/01/13 08:44:17;;;;;;;38.35;13.40;;;;;;;1.08;88.11;101764.41;5130425;27;20055;-79
2021/01/13 08:46:45;;;;;;;35.95;14.02;;;;;;;1.11;88.93;101764.09;5097251;28;20141;-79
2021/01/13 08:49:20;;;;;;;28.67;12.63;;;;;;;1.14;88.81;101769.16;5130220;27;20020;-79
2021/01/13 08:52:04;;;;;;;43.63;14.45;;;;;;;1.15;88.33;101756.66;5111814;28;20445;-79
2021/01/13 08:54:35;;;;;;;36.60;14.80;;;;;;;1.15;88.76;101754.84;5097073;28;20099;-79
2021/01/13 08:57:03;;;;;;;46.90;14.43;;;;;;;1.19;88.74;101761.56;5095967;28;20079;-79
2021/01/13 08:59:47;;;;;;;38.58;15.82;;;;;;;1.19;88.77;101758.88;5096009;28;20069;-79
2021/01/13 09:02:18;;;;;;;34.97;14.40;;;;;;;1.20;88.48;101757.06;5078226;28;20044;-79
2021/01/13 09:04:57;;;;;;;42.55;16.13;;;;;;;1.20;89.00;101755.22;5078020;28;20059;-79
2021/01/13 09:07:27;;;;;;;35.17;15.38;;;;;;;1.23;88.60;101757.59;5129138;27;20077;-79
2021/01/13 09:13:31;;;;;;;36.45;15.32;;;;;;;1.23;89.15;101762.94;5096746;28;20479;-79
2021/01/13 09:16:24;;;;;;;36.53;15.57;;;;;;;1.24;88.92;101761.94;5096758;28;20405;-79
2021/01/13 09:18:58;;;;;;;37.58;17.05;;;;;;;1.23;89.42;101762.09;5096743;28;20024;-79
2021/01/13 09:24:55;;;;;;;39.92;17.58;;;;;;;1.27;88.88;101747.50;5097031;28;20035;-79
2021/01/13 09:27:33;;;;;;;38.92;16.98;;;;;;;1.29;88.95;101754.34;5094903;28;20040;-79
2021/01/13 09:30:07;;;;;;;36.08;17.02;;;;;;;1.31;89.38;101740.88;5095255;28;20063;-79
2021/01/13 09:32:53;;;;;;;50.70;17.85;;;;;;;1.37;88.51;101742.97;5128469;28;20074;-79
2021/01/13 09:35:26;;;;;;;31.75;16.02;;;;;;;1.40;88.90;101747.13;5096377;28;20044;-79
2021/01/13 09:37:54;;;;;;;39.95;16.48;;;;;;;1.44;89.01;101753.84;5129475;28;20024;-79
2021/01/13 09:40:22;;;;;;;32.75;15.75;;;;;;;1.43;89.13;101745.03;5096293;28;20356;-79
2021/01/13 09:42:57;;;;;;;38.17;16.20;;;;;;;1.49;89.22;101759.56;5095171;28;20420;-79
2021/01/13 09:45:37;;;;;;;31.23;15.02;;;;;;;1.50;88.48;101759.41;5111208;28;20028;-79
2021/01/13 09:48:16;;;;;;;28.95;15.75;;;;;;;1.49;88.80;101746.25;5095085;28;20071;-79
2021/01/13 09:50:41;;;;;;;30.63;15.57;;;;;;;1.53;87.98;101744.97;5095334;28;20417;-79
2021/01/13 09:53:07;;;;;;;37.43;17.27;;;;;;;1.57;88.43;101751.69;5129295;28;20119;-79
2021/01/13 09:55:32;;;;;;;32.57;15.53;;;;;;;1.61;88.58;101747.72;5096370;28;20039;-79
2021/01/13 09:58:14;;;;;;;44.57;18.57;;;;;;;1.69;88.28;101753.13;5077892;28;20387;-79
2021/01/13 10:00:40;;;;;;;34.92;14.13;;;;;;;1.76;87.57;101753.38;5096216;28;20025;-79
2021/01/13 10:03:06;;;;;;;31.53;14.67;;;;;;;1.84;87.44;101747.28;5095333;28;20478;-79
2021/01/13 10:05:32;;;;;;;35.38;14.93;;;;;;;1.86;87.64;101746.16;5094640;28;20039;-79
2021/01/13 10:07:57;;;;;;;32.10;14.00;;;;;;;1.90;87.33;101747.50;5077732;28;20035;-79
2021/01/13 10:10:23;;;;;;;31.13;13.07;;;;;;;1.83;86.58;101741.09;5096119;28;20028;-80
2021/01/13 10:12:56;;;;;;;27.98;14.10;;;;;;;1.93;86.58;101743.69;5096117;28;20024;-79
2021/01/13 10:15:22;;;;;;;39.97;14.13;;;;;;;1.96;86.75;101744.25;5094625;28;20421;-79
2021/01/13 10:17:50;;;;;;;30.67;14.07;;;;;;;2.08;86.87;101736.00;5077311;28;20031;-79
2021/01/13 10:20:24;;;;;;;29.55;12.75;;;;;;;2.24;86.15;101744.97;5096097;28;20024;-80
2021/01/13 10:22:51;;;;;;;29.42;12.85;;;;;;;2.38;85.92;101746.25;5078726;28;20358;-79
2021/01/13 10:25:24;;;;;;;29.48;12.90;;;;;;;2.49;85.58;101740.66;5128375;28;20117;-80
2021/01/13 10:27:53;;;;;;;33.55;11.80;;;;;;;2.52;84.46;101735.00;5094609;28;20032;-80
2021/01/13 10:30:19;;;;;;;27.77;11.88;;;;;;;2.51;85.08;101736.00;5094532;28;20040;-80
2021/01/13 10:32:55;;;;;;;28.27;11.43;;;;;;;2.56;85.02;101736.38;5093688;28;20055;-78
2021/01/13 10:35:22;;;;;;;32.22;11.68;;;;;;;2.66;84.82;101732.75;5095982;28;20258;-79
2021/01/13 10:37:56;;;;;;;25.27;11.20;;;;;;;2.75;84.34;101723.81;5096701;28;20020;-80
2021/01/13 10:40:23;;;;;;;22.42;11.07;;;;;;;2.94;84.19;101730.75;5098610;28;20031;-79
2021/01/13 10:42:53;;;;;;;28.20;11.45;;;;;;;3.06;83.54;101726.78;5098543;28;20016;-79
2021/01/13 10:45:20;;;;;;;23.55;10.57;;;;;;;3.20;83.23;101723.50;5115455;28;20329;-79
2021/01/13 10:47:56;;;;;;;16.52;10.05;;;;;;;3.20;82.66;101723.50;5099656;28;20020;-79
2021/01/13 10:50:23;;;;;;;27.70;11.25;;;;;;;3.18;82.22;101735.38;5097970;28;20064;-79
2021/01/13 10:52:52;;;;;;;22.00;11.10;;;;;;;3.28;82.79;101728.91;5097941;28;20425;-79
2021/01/13 10:55:20;;;;;;;26.45;10.43;;;;;;;3.32;82.04;101724.91;5132377;27;20410;-79
2021/01/13 10:57:49;;;;;;;30.00;9.93;;;;;;;3.34;81.82;101722.06;5097908;28;20035;-79
2021/01/13 11:00:16;;;;;;;22.00;10.45;;;;;;;3.39;82.10;101719.72;5080619;28;20038;-79
2021/01/13 11:02:50;;;;;;;23.63;10.15;;;;;;;3.43;81.62;101722.94;5098222;28;20107;-80
2021/01/13 11:05:16;;;;;;;22.83;9.70;;;;;;;3.42;82.34;101718.59;5098193;28;20065;-79
2021/01/13 11:07:47;;;;;;;23.75;10.50;;;;;;;3.45;81.93;101705.72;5097877;28;20032;-79
2021/01/13 11:10:13;;;;;;;28.02;10.40;;;;;;;3.44;81.98;101716.56;5097757;28;20099;-79
2021/01/13 11:12:40;;;;;;;29.75;10.45;;;;;;;3.42;81.95;101703.38;5080186;28;20089;-80
2021/01/13 11:15:07;;;;;;;26.40;10.32;;;;;;;3.43;81.81;101701.53;5097985;28;20026;-80
2021/01/13 11:17:33;;;;;;;23.00;8.35;;;;;;;3.43;82.15;101706.88;5097884;28;20032;-79
2021/01/13 11:20:00;;;;;;;29.75;9.90;;;;;;;3.47;82.35;101697.53;5098883;28;20031;-79
2021/01/13 11:22:47;;;;;;;27.25;10.02;;;;;;;3.46;81.67;101687.81;5097646;28;20038;-79
2021/01/13 11:25:30;;;;;;;25.60;9.80;;;;;;;3.53;81.91;101680.84;5130025;27;20058;-79
2021/01/13 11:28:13;;;;;;;29.38;9.63;;;;;;;3.59;81.56;101686.34;5098650;28;20038;-80
2021/01/13 11:30:44;;;;;;;21.27;8.48;;;;;;;3.65;81.09;101679.50;5080181;28;20390;-79
2021/01/13 11:33:11;;;;;;;23.75;9.20;;;;;;;3.65;80.12;101679.50;5097446;28;20040;-79
2021/01/13 11:35:40;;;;;;;25.63;9.25;;;;;;;3.57;80.40;101671.50;5096786;28;20063;-79
2021/01/13 11:38:17;;;;;;;25.30;8.43;;;;;;;3.60;81.02;101668.47;5097419;28;20073;-79
2021/01/13 11:40:58;;;;;;;23.75;9.30;;;;;;;3.64;80.16;101659.13;5098398;28;20028;-79
2021/01/13 11:43:51;;;;;;;16.65;7.80;;;;;;;3.69;79.60;101672.00;5098313;28;20024;-80
2021/01/13 11:46:17;;;;;;;24.67;8.13;;;;;;;3.74;79.50;101656.28;5097272;28;20039;-80
2021/01/13 11:48:52;;;;;;;;;;;;;;;3.93;78.19;101650.59;5098579;28;20016;-80
2021/01/13 11:51:18;;;;;;;18.90;6.53;;;;;;;4.12;76.40;101647.56;5098115;28;19969;-80
2021/01/13 11:53:45;;;;;;;18.73;6.50;;;;;;;4.20;75.58;101640.53;5096994;28;20044;-80